Time;durP1;ratioP1;P1;durP2;ratioP2;P2;SDS_P1;SDS_P2;PMS_P1;PMS_P2;Temp;Humidity;BMP_temperature;BMP_pressure;BME280_temperature;BME280_humidity;BME280_pressure;Samples;Min_cycle;Max_cycle;Signal;HPM_P1;HPM_P2
2024/03/09 00:01:45;;;;;;;3.53;0.82;;;0.80;99.90;;;;;;20874864;28;20126;-47
2024/03/09 00:11:47;;;;;;;1.73;1.25;;;0.80;99.90;;;;;;20874828;28;20914;-48
2024/03/09 00:21:48;;;;;;;2.00;1.20;;;0.80;99.90;;;;;;20890575;28;20511;-46
2024/03/09 00:31:51;;;;;;;2.08;1.20;;;0.80;99.90;;;;;;20891664;28;20126;-45
2024/03/09 00:41:56;;;;;;;2.22;1.20;;;0.80;99.90;;;;;;20893085;28;20138;-45
2024/03/09 00:51:58;;;;;;;2.40;1.58;;;0.90;99.90;;;;;;20892225;28;20735;-45
2024/03/09 01:02:03;;;;;;;1.63;1.23;;;0.90;99.90;;;;;;20890034;28;20158;-48
2024/03/09 01:12:05;;;;;;;1.45;0.90;;;0.90;99.90;;;;;;20861617;28;21255;-46
2024/03/09 01:22:07;;;;;;;0.30;0.30;;;0.90;99.90;;;;;;20874071;28;20756;-44
2024/03/09 01:32:10;;;;;;;1.58;0.40;;;0.90;99.90;;;;;;20859247;28;20135;-44
2024/03/09 01:42:12;;;;;;;0.90;0.40;;;0.90;99.90;;;;;;20859979;28;20685;-43
2024/03/09 01:52:14;;;;;;;1.27;0.30;;;0.90;99.90;;;;;;20878269;28;20087;-44
2024/03/09 02:02:16;;;;;;;0.68;0.20;;;0.90;99.90;;;;;;20855357;28;22124;-44
2024/03/09 02:12:19;;;;;;;0.50;0.20;;;0.90;99.90;;;;;;20873846;28;20167;-42
2024/03/09 02:22:25;;;;;;;0.20;0.10;;;0.90;99.90;;;;;;20853987;28;20162;-43
2024/03/09 02:32:30;;;;;;;0.15;0.10;;;0.90;99.90;;;;;;20856399;28;20154;-43
2024/03/09 02:42:32;;;;;;;0.20;0.10;;;0.80;99.90;;;;;;20853474;28;21253;-43
2024/03/09 02:52:34;;;;;;;0.08;0.00;;;0.80;99.90;;;;;;20868873;28;20777;-43
2024/03/09 03:12:55;;;;;;;1.93;0.00;;;0.70;99.90;;;;;;20844892;28;20142;-47
2024/03/09 03:22:59;;;;;;;0.10;0.00;;;0.80;99.90;;;;;;20869430;28;20550;-47
2024/03/09 03:33:01;;;;;;;0.00;0.00;;;0.90;99.90;;;;;;20870750;28;20122;-44
2024/03/09 03:43:03;;;;;;;0.20;0.00;;;0.80;99.90;;;;;;20828532;28;21411;-43
2024/03/09 03:53:05;;;;;;;0.10;0.10;;;0.90;99.90;;;;;;20867677;28;20424;-43
2024/03/09 04:03:08;;;;;;;0.00;0.00;;;0.90;99.90;;;;;;20848921;28;20212;-42
2024/03/09 04:13:11;;;;;;;0.00;0.00;;;1.00;99.90;;;;;;20865996;28;20935;-43
2024/03/09 04:23:16;;;;;;;0.13;0.00;;;1.20;99.90;;;;;;20844958;28;20169;-43
2024/03/09 04:33:19;;;;;;;0.00;0.00;;;1.20;99.90;;;;;;20864355;28;20148;-41
2024/03/09 04:43:20;;;;;;;0.00;0.00;;;1.10;99.90;;;;;;20851934;28;20578;-40
2024/03/09 04:53:25;;;;;;;0.00;0.00;;;1.20;99.90;;;;;;20878709;28;20075;-51
2024/03/09 05:03:28;;;;;;;0.00;0.00;;;1.30;99.90;;;;;;20880462;28;20120;-41
2024/03/09 05:13:30;;;;;;;0.00;0.00;;;1.20;99.90;;;;;;20883795;28;21233;-40
2024/03/09 05:23:32;;;;;;;0.13;0.00;;;1.10;99.90;;;;;;20861429;28;20152;-42
2024/03/09 05:33:34;;;;;;;0.10;0.00;;;1.10;99.90;;;;;;20879060;28;20170;-42
2024/03/09 05:43:36;;;;;;;0.00;0.00;;;1.10;99.90;;;;;;20878600;28;20079;-41
2024/03/09 05:53:38;;;;;;;0.00;0.00;;;1.10;99.90;;;;;;20878306;28;20071;-42
2024/03/09 06:03:42;;;;;;;0.00;0.00;;;1.10;99.90;;;;;;20873303;28;20170;-43
2024/03/09 06:13:44;;;;;;;0.03;0.00;;;1.10;99.90;;;;;;20872959;28;20169;-43
2024/03/09 06:23:46;;;;;;;0.13;0.00;;;1.20;99.90;;;;;;20873789;28;20782;-43
2024/03/09 06:33:47;;;;;;;0.00;0.00;;;1.20;99.90;;;;;;20854739;28;21623;-41
2024/03/09 06:56:18;;;;;;;0.00;0.00;;;1.30;99.90;;;;;;21182870;27;1465290;-51
2024/03/09 07:06:20;;;;;;;0.00;0.00;;;1.60;99.90;;;;;;21176069;28;20028;-51
2024/03/09 07:16:22;;;;;;;0.00;0.00;;;1.70;99.90;;;;;;21166610;28;20028;-46
2024/03/09 07:26:25;;;;;;;0.00;0.00;;;1.70;99.90;;;;;;21203749;28;20055;-48
2024/03/09 07:36:27;;;;;;;0.00;0.00;;;1.70;99.90;;;;;;21210936;28;20036;-47
2024/03/09 07:46:29;;;;;;;0.00;0.00;;;1.80;99.90;;;;;;21208598;28;20065;-47
2024/03/09 07:56:32;;;;;;;0.00;0.00;;;2.10;99.90;;;;;;21091073;28;20410;-47
2024/03/09 08:06:37;;;;;;;0.00;0.00;;;2.40;99.90;;;;;;21117819;28;20036;-45
2024/03/09 08:16:39;;;;;;;0.10;0.00;;;2.70;99.90;;;;;;21058303;28;20097;-50
2024/03/09 08:26:42;;;;;;;0.28;0.10;;;3.00;99.90;;;;;;21139148;28;20535;-48
2024/03/09 08:36:44;;;;;;;0.10;0.00;;;3.10;99.90;;;;;;21142188;28;20035;-46
2024/03/09 08:46:46;;;;;;;0.45;0.10;;;3.10;99.90;;;;;;21128622;28;20082;-50
2024/03/09 08:56:52;;;;;;;0.10;0.00;;;3.50;99.90;;;;;;21074446;28;20121;-50
2024/03/09 09:06:53;;;;;;;0.43;0.20;;;3.90;99.90;;;;;;21054903;28;20044;-50
2024/03/09 09:16:58;;;;;;;0.28;0.20;;;4.00;99.90;;;;;;21087169;28;20359;-45
2024/03/09 09:27:00;;;;;;;0.63;0.47;;;4.30;99.90;;;;;;21109409;28;20028;-46
2024/03/09 09:37:01;;;;;;;0.50;0.50;;;6.00;99.90;;;;;;21102570;28;20031;-47
2024/03/09 09:47:03;;;;;;;0.10;0.10;;;7.10;99.90;;;;;;21101190;28;20372;-45
2024/03/09 09:57:05;;;;;;;0.00;0.00;;;7.50;99.90;;;;;;21107439;28;20065;-48
2024/03/09 10:07:08;;;;;;;0.17;0.00;;;7.30;99.90;;;;;;21129152;28;20097;-44
2024/03/09 10:17:14;;;;;;;0.30;0.10;;;7.20;99.90;;;;;;21068148;28;20108;-45
2024/03/09 10:27:20;;;;;;;0.13;0.10;;;7.10;99.90;;;;;;21076223;28;20089;-45
2024/03/09 10:37:23;;;;;;;0.50;0.20;;;6.80;99.90;;;;;;21126716;28;20043;-46
2024/03/09 10:47:25;;;;;;;0.40;0.20;;;6.60;99.90;;;;;;21074180;28;20036;-47
2024/03/09 10:57:29;;;;;;;0.50;0.20;;;6.10;99.90;;;;;;20990454;28;20090;-48
2024/03/09 11:07:32;;;;;;;0.80;0.40;;;5.70;99.90;;;;;;21065290;28;20035;-46
2024/03/09 11:17:35;;;;;;;0.45;0.35;;;5.50;99.90;;;;;;21065702;28;20040;-46
2024/03/09 11:27:39;;;;;;;0.70;0.40;;;5.70;99.90;;;;;;21064735;28;20036;-45
2024/03/09 11:37:51;;;;;;;0.75;0.50;;;5.70;99.90;;;;;;21058280;28;20036;-46
2024/03/09 11:47:53;;;;;;;1.42;0.50;;;5.50;99.90;;;;;;21078788;28;20052;-50
2024/03/09 11:57:55;;;;;;;1.60;0.60;;;5.30;99.90;;;;;;20980234;28;20087;-49
2024/03/09 12:07:57;;;;;;;0.60;0.50;;;5.10;99.90;;;;;;20971652;28;20067;-48
2024/03/09 12:18:03;;;;;;;0.60;0.50;;;5.00;99.90;;;;;;20994238;28;20028;-44
2024/03/09 12:28:05;;;;;;;0.85;0.70;;;5.10;99.90;;;;;;20902956;28;20438;-44
2024/03/09 12:38:15;;;;;;;1.02;0.60;;;5.40;99.90;;;;;;20984033;28;20040;-47
2024/03/09 12:48:16;;;;;;;0.95;0.80;;;5.70;99.90;;;;;;20978955;28;20053;-42
2024/03/09 12:58:19;;;;;;;6.57;1.45;;;5.60;99.90;;;;;;21065883;28;20032;-48
2024/03/09 13:08:26;;;;;;;83.07;5.45;;;5.10;99.90;;;;;;21039758;28;20086;-46
2024/03/09 13:18:28;;;;;;;37.92;3.60;;;4.50;99.90;;;;;;21030664;28;20036;-45
2024/03/09 13:28:31;;;;;;;24.05;3.03;;;4.10;99.90;;;;;;21057981;28;20024;-46
2024/03/09 13:38:36;;;;;;;1.95;1.67;;;4.00;99.90;;;;;;21027701;28;20441;-45
2024/03/09 13:48:42;;;;;;;4.38;1.88;;;4.00;99.90;;;;;;21021848;28;20455;-41
2024/03/09 13:58:46;;;;;;;3.78;2.15;;;3.90;99.90;;;;;;20959639;28;20040;-48
2024/03/09 14:08:50;;;;;;;2.00;1.70;;;3.70;99.90;;;;;;20981447;28;20032;-47
2024/03/09 14:18:53;;;;;;;2.15;1.60;;;3.70;99.90;;;;;;20984851;28;20028;-45
2024/03/09 14:28:58;;;;;;;3.08;2.22;;;3.70;99.90;;;;;;20975004;28;20036;-49
2024/03/09 14:39:01;;;;;;;1.80;1.50;;;3.70;99.90;;;;;;20972929;28;20036;-46
2024/03/09 14:49:07;;;;;;;1.63;1.33;;;4.40;99.90;;;;;;20981477;28;20056;-46
2024/03/09 14:59:10;;;;;;;1.60;1.20;;;5.10;99.90;;;;;;21020413;28;20036;-47
2024/03/09 15:09:20;;;;;;;1.65;1.23;;;5.60;99.90;;;;;;21039653;28;20028;-44
2024/03/09 15:19:23;;;;;;;1.50;1.27;;;5.70;99.90;;;;;;21055924;28;20043;-47
2024/03/09 15:29:25;;;;;;;2.15;1.63;;;5.60;99.90;;;;;;21080960;28;20032;-44
2024/03/09 15:39:31;;;;;;;1.70;1.60;;;5.40;99.90;;;;;;21042792;28;20529;-46
2024/03/09 15:49:34;;;;;;;3.90;2.90;;;5.10;99.90;;;;;;20973840;28;20095;-46
2024/03/09 15:59:37;;;;;;;3.08;2.53;;;4.80;99.90;;;;;;20911089;28;20041;-44
2024/03/09 16:09:39;;;;;;;4.65;2.63;;;4.50;99.90;;;;;;20913522;28;20036;-48
2024/03/09 16:19:41;;;;;;;3.92;2.97;;;4.60;99.90;;;;;;20945875;28;20033;-49
2024/03/09 16:29:43;;;;;;;2.92;2.42;;;4.30;99.90;;;;;;20960884;28;20090;-45
2024/03/09 16:39:46;;;;;;;2.97;2.40;;;4.00;99.90;;;;;;20984440;28;20040;-47
2024/03/09 16:49:48;;;;;;;3.40;2.75;;;3.80;99.90;;;;;;20982020;28;20032;-40
2024/03/09 16:59:52;;;;;;;5.47;2.88;;;3.40;99.90;;;;;;20994660;28;20078;-46
2024/03/09 17:09:55;;;;;;;4.80;3.20;;;3.20;99.90;;;;;;20994088;28;20494;-47
2024/03/09 17:20:07;;;;;;;3.80;2.78;;;3.00;99.90;;;;;;20992834;28;20028;-44
2024/03/09 17:30:16;;;;;;;9.00;5.53;;;2.60;99.90;;;;;;20910385;28;20079;-46
2024/03/09 17:40:18;;;;;;;4.72;3.25;;;2.30;99.90;;;;;;20988425;28;20079;-48
2024/03/09 17:50:25;;;;;;;6.00;4.78;;;2.20;99.90;;;;;;20951928;28;20040;-44
2024/03/09 18:00:33;;;;;;;5.00;3.95;;;2.00;99.90;;;;;;20990270;28;20098;-48
2024/03/09 18:10:41;;;;;;;3.63;2.53;;;1.60;99.90;;;;;;20989676;28;20055;-46
2024/03/09 18:20:47;;;;;;;3.60;1.43;;;1.40;99.90;;;;;;20997118;28;20040;-43
2024/03/09 18:30:49;;;;;;;1.98;1.27;;;1.20;99.90;;;;;;20988666;28;20083;-44
2024/03/09 18:40:52;;;;;;;3.83;1.80;;;1.00;99.90;;;;;;20991046;28;20032;-43
2024/03/09 18:50:55;;;;;;;2.60;1.70;;;0.90;99.90;;;;;;21019672;28;20040;-43
2024/03/09 19:00:57;;;;;;;2.10;1.50;;;0.80;99.90;;;;;;21017983;28;20048;-45
2024/03/09 19:11:00;;;;;;;2.40;1.50;;;0.80;99.90;;;;;;21070553;28;20089;-43
2024/03/09 19:21:08;;;;;;;2.03;1.00;;;0.80;99.90;;;;;;21055886;28;20063;-43
2024/03/09 19:31:12;;;;;;;3.97;2.10;;;0.90;99.90;;;;;;21037790;28;20036;-46
2024/03/09 19:41:14;;;;;;;1.65;1.00;;;0.90;99.90;;;;;;21068913;28;20102;-41
2024/03/09 19:51:16;;;;;;;1.50;1.08;;;1.00;99.90;;;;;;21080059;28;20518;-49
2024/03/09 20:01:24;;;;;;;3.55;0.80;;;1.20;99.90;;;;;;21082688;28;20032;-42
2024/03/09 20:11:26;;;;;;;10.75;9.65;;;1.40;99.90;;;;;;21082028;28;20039;-44
2024/03/09 20:21:28;;;;;;;4.10;3.30;;;1.50;99.90;;;;;;21081543;28;20044;-44
2024/03/09 20:31:30;;;;;;;1.85;0.40;;;1.60;99.90;;;;;;21080874;28;20028;-44
2024/03/09 20:41:32;;;;;;;1.40;0.50;;;1.50;99.90;;;;;;21078975;28;20032;-47
2024/03/09 20:51:38;;;;;;;1.20;0.80;;;1.60;99.90;;;;;;21078727;28;20177;-44
2024/03/09 21:01:40;;;;;;;1.42;0.70;;;1.70;99.90;;;;;;21078047;28;20119;-44
2024/03/09 21:11:45;;;;;;;3.40;1.52;;;1.60;99.90;;;;;;21062992;28;20509;-47
2024/03/09 21:21:47;;;;;;;2.95;1.60;;;1.60;99.90;;;;;;21049125;28;20036;-47
2024/03/09 21:31:49;;;;;;;2.60;2.30;;;1.60;99.90;;;;;;21075751;28;20024;-48
2024/03/09 21:41:52;;;;;;;3.33;1.45;;;1.60;99.90;;;;;;21074891;28;20047;-49
2024/03/09 21:51:53;;;;;;;0.82;0.40;;;1.60;99.90;;;;;;21034030;28;20044;-49
2024/03/09 22:01:58;;;;;;;8.35;6.38;;;1.70;99.90;;;;;;20989820;28;20098;-47
2024/03/09 22:12:04;;;;;;;2.53;1.55;;;1.70;99.90;;;;;;20987401;28;20043;-47
2024/03/09 22:22:06;;;;;;;2.90;0.30;;;1.70;99.90;;;;;;20996561;28;20415;-49
2024/03/09 22:32:08;;;;;;;0.70;0.40;;;1.80;99.90;;;;;;20988159;28;20036;-45
2024/03/09 22:42:09;;;;;;;0.68;0.38;;;1.90;99.90;;;;;;20969661;28;20036;-44
2024/03/09 22:52:12;;;;;;;1.58;0.20;;;1.90;99.90;;;;;;21021295;28;20071;-46
2024/03/09 23:02:15;;;;;;;6.00;4.47;;;1.90;99.90;;;;;;20986674;28;20044;-44
2024/03/09 23:12:18;;;;;;;4.22;2.55;;;2.00;99.90;;;;;;20968346;28;20043;-49
2024/03/09 23:22:21;;;;;;;2.20;0.30;;;1.90;99.90;;;;;;20999868;28;20028;-45
2024/03/09 23:32:23;;;;;;;1.85;0.40;;;1.80;99.90;;;;;;21001572;28;20035;-45
2024/03/09 23:42:25;;;;;;;5.45;0.60;;;1.80;99.90;;;;;;21000469;28;20102;-49
2024/03/09 23:52:27;;;;;;;1.77;0.60;;;2.00;99.90;;;;;;21033739;28;20045;-45
